createdAt,value
2022-08-19T02:33:32.835Z,85.90
2022-08-19T02:34:35.835Z,86.50
2022-08-19T02:35:39.579Z,86.40
2022-08-19T02:36:42.351Z,86.00
2022-08-19T02:38:03.666Z,86.30
2022-08-19T02:39:07.144Z,86.30
2022-08-19T02:40:12.563Z,86.40
2022-08-19T02:41:18.992Z,86.70
2022-08-19T02:42:21.631Z,86.70
2022-08-19T02:43:28.562Z,87.00
2022-08-19T02:44:32.029Z,87.40
2022-08-19T02:45:35.888Z,87.30
2022-08-19T02:46:44.513Z,87.30
2022-08-19T02:47:49.425Z,87.30
2022-08-19T02:48:58.145Z,87.50
2022-08-19T02:50:02.390Z,87.30
2022-08-19T02:51:06.378Z,87.40
2022-08-19T02:52:08.818Z,87.20
2022-08-19T02:53:12.644Z,87.40
2022-08-19T02:54:17.488Z,87.40
2022-08-19T02:55:21.957Z,87.60
2022-08-19T02:56:25.815Z,87.40
2022-08-19T02:57:29.342Z,87.90
2022-08-19T02:58:31.589Z,87.70
2022-08-19T02:59:35.698Z,87.50
2022-08-19T03:00:43.702Z,87.30
2022-08-19T03:01:48.536Z,87.40
2022-08-19T03:02:50.959Z,87.60
2022-08-19T03:03:57.089Z,86.90
2022-08-19T03:04:59.386Z,86.80
2022-08-19T03:06:08.966Z,86.90
2022-08-19T03:07:16.128Z,87.00
2022-08-19T03:08:19.593Z,87.30
2022-08-19T03:09:24.006Z,86.80
2022-08-19T03:10:27.330Z,86.60
2022-08-19T03:11:32.876Z,86.80
2022-08-19T03:12:38.852Z,86.90
2022-08-19T03:13:41.282Z,87.20
2022-08-19T03:14:44.758Z,87.00
2022-08-19T03:15:48.766Z,87.30
2022-08-19T03:16:54.357Z,87.70
2022-08-19T03:17:56.608Z,87.90
2022-08-19T03:19:03.387Z,88.10
2022-08-19T03:20:07.273Z,88.30
2022-08-19T03:21:12.440Z,88.50
2022-08-19T03:22:15.276Z,87.90
2022-08-19T03:23:19.525Z,87.90
2022-08-19T03:24:22.157Z,87.80
2022-08-19T03:25:25.693Z,88.20
2022-08-19T03:26:28.724Z,88.00
2022-08-19T03:27:34.738Z,88.10
2022-08-19T03:28:40.851Z,88.10
2022-08-19T03:29:44.078Z,88.10
2022-08-19T03:30:59.253Z,88.30
2022-08-19T03:32:06.830Z,88.10
2022-08-19T03:33:18.206Z,88.60
2022-08-19T03:34:35.615Z,88.20
2022-08-19T03:35:39.182Z,88.40
2022-08-19T03:36:43.133Z,88.60
2022-08-19T03:37:45.844Z,88.50
2022-08-19T03:38:57.528Z,88.50
2022-08-19T03:40:04.647Z,88.90
2022-08-19T03:41:10.106Z,88.80
2022-08-19T03:42:32.018Z,89.00
2022-08-19T03:43:37.637Z,88.50
2022-08-19T03:44:43.351Z,88.80
2022-08-19T03:45:45.741Z,88.00
2022-08-19T03:46:50.948Z,88.10
2022-08-19T03:47:54.130Z,88.30
2022-08-19T03:48:59.362Z,88.00
2022-08-19T03:50:04.800Z,87.80
2022-08-19T03:51:08.246Z,88.20
2022-08-19T03:52:11.547Z,87.90
2022-08-19T03:53:13.800Z,88.50
2022-08-19T03:54:20.087Z,88.40
2022-08-19T03:55:22.712Z,87.80
2022-08-19T03:56:27.142Z,87.70
2022-08-19T03:57:32.004Z,87.80
2022-08-19T03:58:35.545Z,88.10
2022-08-19T03:59:39.105Z,87.40
2022-08-19T04:00:45.724Z,87.50
2022-08-19T04:01:48.379Z,87.90
2022-08-19T04:02:51.721Z,86.80
2022-08-19T04:04:02.048Z,86.70
2022-08-19T04:05:10.520Z,86.90
2022-08-19T04:06:15.172Z,86.30
2022-08-19T04:07:22.506Z,85.80
2022-08-19T04:08:24.933Z,85.10
2022-08-19T04:09:28.588Z,84.60
2022-08-19T04:10:31.153Z,84.40
2022-08-19T04:11:44.800Z,84.20
2022-08-19T04:12:47.683Z,82.90
2022-08-19T04:13:53.931Z,83.50
2022-08-19T04:14:56.437Z,83.60
2022-08-19T04:16:00.033Z,83.50
2022-08-19T04:17:06.077Z,83.60
2022-08-19T04:18:10.695Z,83.90
2022-08-19T04:19:13.200Z,83.60
2022-08-19T04:20:18.182Z,83.90
2022-08-19T04:21:24.051Z,83.80
2022-08-19T04:22:27.517Z,83.90
2022-08-19T04:23:32.198Z,84.40
2022-08-19T04:24:36.259Z,84.30
2022-08-19T04:25:40.867Z,84.30
2022-08-19T04:26:44.663Z,83.80
2022-08-19T04:27:47.549Z,83.60
2022-08-19T04:28:52.563Z,83.40
2022-08-19T04:29:56.095Z,83.60
2022-08-19T04:30:59.610Z,83.40
2022-08-19T04:32:09.413Z,83.50
2022-08-19T04:33:16.488Z,83.60
2022-08-19T04:34:23.667Z,82.40
2022-08-19T04:35:28.392Z,82.10
2022-08-19T04:36:33.625Z,82.00
2022-08-19T04:37:36.964Z,81.90
2022-08-19T04:38:39.342Z,82.70
2022-08-19T04:40:02.212Z,82.80
2022-08-19T04:41:24.205Z,82.70
2022-08-19T04:42:42.932Z,81.90
2022-08-19T04:43:49.855Z,81.40
2022-08-19T04:44:53.450Z,81.30
2022-08-19T04:46:01.144Z,81.60
2022-08-19T04:47:11.310Z,80.40
2022-08-19T04:48:26.280Z,80.80
2022-08-19T04:49:31.336Z,80.70
2022-08-19T04:50:35.240Z,80.70
2022-08-19T04:51:43.079Z,80.90
2022-08-19T04:52:45.302Z,80.10
2022-08-19T04:53:48.940Z,79.70
2022-08-19T04:54:51.611Z,80.20
2022-08-19T04:55:55.027Z,79.70
2022-08-19T04:56:57.320Z,79.20
2022-08-19T04:58:00.740Z,79.40
2022-08-19T04:59:04.351Z,80.10
2022-08-19T05:00:09.644Z,79.60
2022-08-19T05:01:15.043Z,79.80
2022-08-19T05:02:18.341Z,79.20
2022-08-19T05:03:21.920Z,79.60
2022-08-19T05:04:25.350Z,78.20
2022-08-19T05:05:27.740Z,78.40
2022-08-19T05:06:34.726Z,78.30
2022-08-19T05:07:37.684Z,79.10
2022-08-19T05:08:44.285Z,79.00
2022-08-19T05:09:58.510Z,78.60
2022-08-19T05:11:14.131Z,79.10
2022-08-19T05:12:17.044Z,79.40
2022-08-19T05:13:21.818Z,79.00
2022-08-19T05:14:24.192Z,79.80
2022-08-19T05:15:27.656Z,79.40
2022-08-19T05:16:30.219Z,79.80
2022-08-19T05:17:38.301Z,80.20
2022-08-19T05:19:00.447Z,80.50
2022-08-19T05:20:21.844Z,81.00
2022-08-19T05:21:43.906Z,80.50
2022-08-19T05:22:50.068Z,80.70
2022-08-19T05:23:52.468Z,81.50
2022-08-19T05:25:11.637Z,81.40
2022-08-19T05:26:17.230Z,81.50
2022-08-19T05:27:19.626Z,81.40
2022-08-19T05:28:23.161Z,81.70
2022-08-19T05:29:27.790Z,81.20
2022-08-19T05:30:47.216Z,81.10
2022-08-19T05:31:51.613Z,81.60
2022-08-19T05:32:57.096Z,81.20
2022-08-19T05:33:59.650Z,81.60
2022-08-19T05:35:03.312Z,81.60
2022-08-19T05:36:08.385Z,81.80
2022-08-19T05:37:11.930Z,81.80
2022-08-19T05:38:16.166Z,81.80
2022-08-19T05:39:22.422Z,81.50
2022-08-19T05:40:24.992Z,81.40
2022-08-19T05:41:31.346Z,81.50
2022-08-19T05:42:33.934Z,81.70
2022-08-19T05:43:38.310Z,82.10
2022-08-19T05:44:45.254Z,81.40
2022-08-19T05:45:48.533Z,81.60
2022-08-19T05:46:53.850Z,82.10
2022-08-19T05:47:57.505Z,82.80
2022-08-19T05:49:02.288Z,81.70
2022-08-19T05:50:06.525Z,82.00
2022-08-19T05:51:09.357Z,81.30
2022-08-19T05:52:16.923Z,80.50
2022-08-19T05:53:22.738Z,81.80
2022-08-19T05:54:26.744Z,81.40
2022-08-19T05:55:30.032Z,80.80
2022-08-19T05:56:33.364Z,80.50
2022-08-19T05:57:36.889Z,79.80
2022-08-19T05:58:40.510Z,80.10
2022-08-19T05:59:45.200Z,80.60
2022-08-19T06:00:48.780Z,80.40
2022-08-19T06:01:55.444Z,80.70
2022-08-19T06:03:00.625Z,80.00
2022-08-19T06:04:15.470Z,79.00
2022-08-19T06:05:18.177Z,78.70
2022-08-19T06:06:22.315Z,78.90
2022-08-19T06:07:25.077Z,78.50
2022-08-19T06:08:34.643Z,78.10
2022-08-19T06:09:38.699Z,78.50
2022-08-19T06:10:41.154Z,78.00
2022-08-19T06:11:47.109Z,78.10
2022-08-19T06:12:50.336Z,77.50
2022-08-19T06:14:00.091Z,77.00
2022-08-19T06:15:07.942Z,76.80
2022-08-19T06:16:10.415Z,77.50
2022-08-19T06:17:14.115Z,77.20
2022-08-19T06:18:17.029Z,77.70
2022-08-19T06:19:27.369Z,77.50
2022-08-19T06:20:54.363Z,77.10
2022-08-19T06:21:55.335Z,77.50
2022-08-19T06:22:57.642Z,78.50
2022-08-19T06:24:03.422Z,78.30
2022-08-19T06:25:06.701Z,78.50
2022-08-19T06:26:14.282Z,78.00
2022-08-19T06:27:18.285Z,78.80
2022-08-19T06:28:20.946Z,78.80
2022-08-19T06:29:28.377Z,79.00
2022-08-19T06:30:30.771Z,79.20
2022-08-19T06:31:36.148Z,79.30
2022-08-19T06:32:42.782Z,79.60
2022-08-19T06:33:46.570Z,80.00
2022-08-19T06:34:50.176Z,81.00
2022-08-19T06:35:53.012Z,80.40
2022-08-19T06:36:58.677Z,79.50
2022-08-19T06:38:01.676Z,78.40
2022-08-19T06:39:10.381Z,79.00
2022-08-19T06:40:15.272Z,77.60
2022-08-19T06:41:17.612Z,77.10
2022-08-19T06:42:22.402Z,77.30
2022-08-19T06:43:28.161Z,77.80
2022-08-19T06:44:43.056Z,77.90
2022-08-19T06:45:45.960Z,77.90
2022-08-19T06:46:54.940Z,78.30
2022-08-19T06:47:57.525Z,78.10
2022-08-19T06:49:01.642Z,78.50
2022-08-19T06:50:05.760Z,78.40
2022-08-19T06:51:09.111Z,78.80
2022-08-19T06:52:14.187Z,78.70
2022-08-19T06:53:16.772Z,78.30
2022-08-19T06:54:21.764Z,78.70
2022-08-19T06:55:26.245Z,78.80
2022-08-19T06:56:35.731Z,78.90
2022-08-19T06:57:39.475Z,79.60
2022-08-19T06:58:42.848Z,79.60
2022-08-19T06:59:46.344Z,78.60
2022-08-19T07:00:49.801Z,78.90
2022-08-19T07:01:55.557Z,78.80
2022-08-19T07:03:03.059Z,78.20
2022-08-19T07:04:12.103Z,79.10
2022-08-19T07:05:16.382Z,79.30
2022-08-19T07:07:44.860Z,78.30
2022-08-19T07:08:50.143Z,78.40
2022-08-19T07:09:59.847Z,79.00
2022-08-19T07:11:09.451Z,79.10
2022-08-19T07:12:16.583Z,78.50
2022-08-19T07:13:19.063Z,78.10
2022-08-19T07:14:26.184Z,78.60
2022-08-19T07:15:28.436Z,78.70
2022-08-19T07:16:32.998Z,78.80
2022-08-19T07:17:38.386Z,78.70
2022-08-19T07:18:42.140Z,79.10
2022-08-19T07:19:48.333Z,79.10
2022-08-19T07:20:51.175Z,78.30
2022-08-19T07:21:55.659Z,77.70
2022-08-19T07:22:58.995Z,77.60
2022-08-19T07:24:05.420Z,77.60
2022-08-19T07:25:11.392Z,77.20
2022-08-19T07:26:17.595Z,77.50
2022-08-19T07:27:24.794Z,77.30
2022-08-19T07:28:28.586Z,77.10
2022-08-19T07:29:35.092Z,76.90
2022-08-19T07:30:39.320Z,76.70
2022-08-19T07:31:43.548Z,76.70
2022-08-19T07:32:46.119Z,77.60
2022-08-19T07:33:51.499Z,77.30
2022-08-19T07:34:58.530Z,76.90
2022-08-19T07:36:02.079Z,77.20
2022-08-19T07:37:06.224Z,76.80
2022-08-19T07:38:09.968Z,76.80
2022-08-19T07:39:15.941Z,76.30
2022-08-19T07:40:20.833Z,76.50
2022-08-19T07:41:26.497Z,77.50
2022-08-19T07:42:30.787Z,76.90
2022-08-19T07:43:35.219Z,76.90
2022-08-19T07:45:43.647Z,76.60
2022-08-19T07:46:53.232Z,76.00
2022-08-19T07:47:56.185Z,75.90
2022-08-19T07:49:01.691Z,76.30
2022-08-19T07:50:06.463Z,75.80
2022-08-19T07:51:14.315Z,75.40
2022-08-19T07:52:19.759Z,74.90
2022-08-19T07:53:22.384Z,74.20
2022-08-19T07:54:28.201Z,74.80
2022-08-19T07:55:42.110Z,73.90
2022-08-19T07:56:47.041Z,74.60
2022-08-19T07:57:49.371Z,74.70
2022-08-19T08:00:02.286Z,74.80
2022-08-19T08:01:18.627Z,74.40
2022-08-19T08:02:20.900Z,74.50
2022-08-19T08:03:45.557Z,74.60
2022-08-19T08:05:06.421Z,74.70
2022-08-19T08:06:27.768Z,75.00
2022-08-19T08:07:49.365Z,75.50
2022-08-19T08:09:10.418Z,75.60
2022-08-19T08:10:20.627Z,76.30
2022-08-19T08:11:25.342Z,76.90
2022-08-19T08:12:41.341Z,77.40
2022-08-19T08:13:43.856Z,77.20
2022-08-19T08:14:51.740Z,76.60
2022-08-19T08:15:59.035Z,76.50
2022-08-19T08:17:04.177Z,76.30
2022-08-19T08:18:14.602Z,76.30
2022-08-19T08:19:25.346Z,76.50
2022-08-19T08:20:29.164Z,76.20
2022-08-19T08:21:32.109Z,76.20
2022-08-19T08:22:53.404Z,76.20
2022-08-19T08:23:57.473Z,76.50
2022-08-19T08:25:04.213Z,76.60
2022-08-19T08:26:10.063Z,76.70
2022-08-19T08:27:13.950Z,76.40
2022-08-19T08:28:22.172Z,76.30
2022-08-19T08:29:24.559Z,76.10
2022-08-19T08:30:33.948Z,76.50
2022-08-19T08:31:38.066Z,75.90
2022-08-19T08:32:42.894Z,76.10
2022-08-19T08:33:46.189Z,76.10
2022-08-19T08:34:51.800Z,76.10
2022-08-19T08:35:56.500Z,76.00
2022-08-19T08:36:58.754Z,76.00
2022-08-19T08:38:03.317Z,75.70
2022-08-19T08:39:05.947Z,75.90
2022-08-19T08:40:20.978Z,75.40
2022-08-19T08:41:32.468Z,75.70
2022-08-19T08:42:42.874Z,76.00
2022-08-19T08:43:53.283Z,75.70
2022-08-19T08:45:03.048Z,75.30
2022-08-19T08:46:12.207Z,75.30
2022-08-19T08:47:21.345Z,75.30
2022-08-19T08:48:33.634Z,75.10
2022-08-19T08:49:47.901Z,75.50
2022-08-19T08:50:58.560Z,75.30
2022-08-19T08:52:07.588Z,75.40
2022-08-19T08:53:13.811Z,75.40
2022-08-19T08:54:22.932Z,75.30
2022-08-19T08:55:36.840Z,75.00
2022-08-19T08:56:40.805Z,75.40
2022-08-19T08:57:56.264Z,75.30
2022-08-19T08:59:04.880Z,75.60
2022-08-19T09:00:15.384Z,75.80
2022-08-19T09:01:18.829Z,76.40
2022-08-19T09:02:22.225Z,75.90
2022-08-19T09:03:28.804Z,75.20
2022-08-19T09:04:37.802Z,75.10
2022-08-19T09:05:52.303Z,74.80
2022-08-19T09:07:18.553Z,74.50
2022-08-19T09:08:51.481Z,73.70
2022-08-19T09:10:13.183Z,73.20
2022-08-19T09:11:42.573Z,73.60
2022-08-19T09:13:14.855Z,73.10
2022-08-19T09:14:52.510Z,71.90
2022-08-19T09:16:03.344Z,72.20
2022-08-19T09:17:09.044Z,72.10
2022-08-19T09:18:15.261Z,72.30
2022-08-19T09:19:22.294Z,72.70
2022-08-19T09:20:26.634Z,72.60
2022-08-19T09:21:33.191Z,72.10
2022-08-19T09:22:37.842Z,72.60
2022-08-19T09:23:40.553Z,72.20
2022-08-19T09:24:44.254Z,71.50
2022-08-19T09:25:46.611Z,71.10
2022-08-19T09:26:52.814Z,71.40
2022-08-19T09:28:02.625Z,70.80
2022-08-19T09:29:07.092Z,70.80
2022-08-19T09:30:13.528Z,70.80
2022-08-19T09:31:20.131Z,70.70
2022-08-19T09:32:26.183Z,70.70
2022-08-19T09:33:30.548Z,70.60
2022-08-19T09:34:37.997Z,70.30
2022-08-19T09:35:52.843Z,70.00
2022-08-19T09:36:59.284Z,69.50
2022-08-19T09:38:03.014Z,69.10
2022-08-19T09:39:16.080Z,69.40
2022-08-19T09:40:21.424Z,69.60
2022-08-19T09:41:29.881Z,69.70
2022-08-19T09:42:35.372Z,69.40
2022-08-19T09:43:44.191Z,69.70
2022-08-19T09:44:49.197Z,70.20
2022-08-19T09:45:51.567Z,69.90
2022-08-19T09:46:55.134Z,69.00
2022-08-19T09:47:58.001Z,68.80
2022-08-19T09:49:06.383Z,69.00
2022-08-19T09:50:11.947Z,69.50
2022-08-19T09:51:22.745Z,69.10
2022-08-19T09:52:25.731Z,68.40
2022-08-19T09:53:36.358Z,68.30
2022-08-19T09:54:40.440Z,67.80
2022-08-19T09:55:47.660Z,68.40
2022-08-19T09:56:51.166Z,67.60
2022-08-19T09:57:55.599Z,66.50
2022-08-19T09:59:02.861Z,66.80
2022-08-19T10:00:09.734Z,67.20
2022-08-19T10:01:19.129Z,67.20
2022-08-19T10:02:22.221Z,67.20
2022-08-19T10:03:30.182Z,67.40
2022-08-19T10:04:47.910Z,66.80
2022-08-19T10:05:54.659Z,67.20
2022-08-19T10:06:58.893Z,67.30
2022-08-19T10:08:02.456Z,67.20
2022-08-19T10:09:10.913Z,67.70
2022-08-19T10:10:13.879Z,67.70
2022-08-19T10:11:28.006Z,68.10
2022-08-19T10:12:40.476Z,68.00
2022-08-19T10:13:44.370Z,67.70
2022-08-19T10:14:49.218Z,68.00
2022-08-19T10:15:52.827Z,68.20
2022-08-19T10:16:59.203Z,67.30
2022-08-19T10:18:02.302Z,67.40
2022-08-19T10:19:05.951Z,66.80
2022-08-19T10:20:09.305Z,66.10
2022-08-19T10:21:14.695Z,66.50
2022-08-19T10:22:20.090Z,66.00
2022-08-19T10:23:23.714Z,66.40
2022-08-19T10:24:26.751Z,66.50
2022-08-19T10:25:31.171Z,66.10
2022-08-19T10:26:38.111Z,66.20
2022-08-19T10:27:42.563Z,65.00
2022-08-19T10:28:48.184Z,66.00
2022-08-19T10:29:51.973Z,65.60
2022-08-19T10:30:55.565Z,65.00
2022-08-19T10:32:00.636Z,65.10
2022-08-19T10:33:10.999Z,65.20
2022-08-19T10:34:26.837Z,65.50
2022-08-19T10:35:31.104Z,65.90
2022-08-19T10:36:55.867Z,66.00
2022-08-19T10:38:02.455Z,65.40
2022-08-19T10:39:09.197Z,64.20
2022-08-19T10:40:13.653Z,64.30
2022-08-19T10:41:18.413Z,64.20
2022-08-19T10:42:22.363Z,64.50
2022-08-19T10:43:25.980Z,64.60
2022-08-19T10:44:32.657Z,64.80
2022-08-19T10:45:38.121Z,64.40
2022-08-19T10:46:56.549Z,64.20
2022-08-19T10:48:00.391Z,63.90
2022-08-19T10:49:05.317Z,63.50
2022-08-19T10:50:28.697Z,64.00
2022-08-19T10:51:51.784Z,64.20
2022-08-19T10:52:54.374Z,63.30
2022-08-19T10:54:03.275Z,65.00
2022-08-19T10:55:34.052Z,64.30
2022-08-19T10:56:52.855Z,63.60
2022-08-19T10:58:04.192Z,63.70
2022-08-19T10:59:08.835Z,62.80
2022-08-19T11:00:14.377Z,63.50
2022-08-19T11:01:19.442Z,64.00
2022-08-19T11:02:22.947Z,64.00
2022-08-19T11:03:28.799Z,64.00
2022-08-19T11:04:33.034Z,63.20
2022-08-19T11:05:39.920Z,63.20
2022-08-19T11:06:44.683Z,63.60
2022-08-19T11:07:48.253Z,63.70
2022-08-19T11:08:51.211Z,63.80
2022-08-19T11:09:55.038Z,62.80
2022-08-19T11:11:02.036Z,63.40
2022-08-19T11:12:05.820Z,63.30
2022-08-19T11:13:08.149Z,63.20
2022-08-19T11:14:15.393Z,63.30
2022-08-19T11:15:18.073Z,63.70
2022-08-19T11:16:27.162Z,64.20
2022-08-19T11:17:30.309Z,63.90
2022-08-19T11:18:33.601Z,64.00
2022-08-19T11:19:36.599Z,63.90
2022-08-19T11:20:40.110Z,63.60
2022-08-19T11:21:46.473Z,63.70
2022-08-19T11:22:53.677Z,64.00
2022-08-19T11:24:00.100Z,64.20
2022-08-19T11:25:03.584Z,64.20
2022-08-19T11:26:07.402Z,64.40
2022-08-19T11:27:12.382Z,64.10
2022-08-19T11:28:14.894Z,63.70
2022-08-19T11:29:21.203Z,63.00
2022-08-19T11:30:23.464Z,63.20
2022-08-19T11:31:31.907Z,63.30
2022-08-19T11:32:34.875Z,64.10
2022-08-19T11:33:38.192Z,64.20
2022-08-19T11:34:40.781Z,63.80
2022-08-19T11:35:44.146Z,64.00
2022-08-19T11:36:49.936Z,64.00
2022-08-19T11:37:53.661Z,64.20
2022-08-19T11:38:56.710Z,64.10
2022-08-19T11:40:01.024Z,64.00
2022-08-19T11:41:08.362Z,63.00
2022-08-19T11:42:34.451Z,62.80
2022-08-19T11:43:40.976Z,62.80
2022-08-19T11:44:43.283Z,63.10
2022-08-19T11:45:49.238Z,63.20
2022-08-19T11:46:54.757Z,63.30
2022-08-19T11:47:57.235Z,63.40
2022-08-19T11:49:03.823Z,63.00
2022-08-19T11:50:07.009Z,63.20
2022-08-19T11:51:13.342Z,63.10
2022-08-19T11:52:16.095Z,62.60
2022-08-19T11:53:21.264Z,61.60
2022-08-19T11:54:24.472Z,61.10
2022-08-19T11:55:29.382Z,60.70
2022-08-19T11:56:33.352Z,60.90
2022-08-19T11:57:35.689Z,61.00
2022-08-19T11:58:40.033Z,59.90
2022-08-19T11:59:44.038Z,59.90
2022-08-19T12:00:46.461Z,60.10
2022-08-19T12:01:49.742Z,60.60
2022-08-19T12:02:53.734Z,60.80
2022-08-19T12:03:59.038Z,61.10
2022-08-19T12:05:04.051Z,61.30
2022-08-19T12:06:08.732Z,61.20
2022-08-19T12:07:13.159Z,61.30
2022-08-19T12:08:16.658Z,61.10
2022-08-19T12:09:20.039Z,61.60
2022-08-19T12:10:26.257Z,61.20
2022-08-19T12:11:31.246Z,61.10
2022-08-19T12:12:39.019Z,61.10
2022-08-19T12:13:46.301Z,60.80
2022-08-19T12:14:51.767Z,61.20
2022-08-19T12:15:54.338Z,61.60
2022-08-19T12:16:57.721Z,61.10
2022-08-19T12:18:01.585Z,61.50
2022-08-19T12:19:07.488Z,61.30
2022-08-19T12:20:14.692Z,61.40
2022-08-19T12:21:22.688Z,62.10
2022-08-19T12:22:28.480Z,61.60
2022-08-19T12:23:30.945Z,61.70
2022-08-19T12:24:35.346Z,61.70
2022-08-19T12:25:38.841Z,61.40
2022-08-19T12:26:52.841Z,61.00
2022-08-19T12:27:57.845Z,60.50
2022-08-19T12:29:01.134Z,60.30
2022-08-19T12:30:05.554Z,60.70
2022-08-19T12:31:09.057Z,60.70
2022-08-19T12:32:12.647Z,60.40
2022-08-19T12:33:16.379Z,60.40
2022-08-19T12:34:21.126Z,60.90
2022-08-19T12:35:24.597Z,60.80
2022-08-19T12:36:27.356Z,60.90
2022-08-19T12:37:33.049Z,60.20
2022-08-19T12:38:35.957Z,60.60
2022-08-19T12:39:43.043Z,59.50
2022-08-19T12:40:49.331Z,59.20
2022-08-19T12:41:54.748Z,59.40
2022-08-19T12:42:58.077Z,59.30
2022-08-19T12:44:02.019Z,59.30
2022-08-19T12:45:08.537Z,59.40
2022-08-19T12:46:12.097Z,59.40
2022-08-19T12:47:18.177Z,59.50
2022-08-19T12:48:34.392Z,59.80
2022-08-19T12:49:53.867Z,59.60
2022-08-19T12:50:58.164Z,59.50
2022-08-19T12:52:02.019Z,59.80
2022-08-19T12:53:07.540Z,59.40
2022-08-19T12:54:09.940Z,59.20
2022-08-19T12:55:13.403Z,59.50
2022-08-19T12:56:16.966Z,59.10
2022-08-19T12:57:21.452Z,59.20
2022-08-19T12:58:27.481Z,58.90
2022-08-19T12:59:30.942Z,58.70
2022-08-19T13:00:33.842Z,59.00
2022-08-19T13:01:37.211Z,58.80
2022-08-19T13:02:42.161Z,59.30
2022-08-19T13:03:48.313Z,58.80
2022-08-19T13:04:53.757Z,58.40
2022-08-19T13:05:57.437Z,59.10
2022-08-19T13:07:01.002Z,58.90
2022-08-19T13:08:05.022Z,59.10
2022-08-19T13:09:07.411Z,59.10
2022-08-19T13:10:13.915Z,59.20
2022-08-19T13:11:20.240Z,59.30
2022-08-19T13:12:25.563Z,59.20
2022-08-19T13:13:27.804Z,59.40
2022-08-19T13:14:32.525Z,59.00
2022-08-19T13:15:40.746Z,59.00
2022-08-19T13:16:44.214Z,59.10
2022-08-19T13:17:46.572Z,59.10
2022-08-19T13:18:52.457Z,59.00
2022-08-19T13:19:54.863Z,59.10
2022-08-19T13:20:58.379Z,59.40
2022-08-19T13:22:00.917Z,59.20
2022-08-19T13:23:05.084Z,59.00
2022-08-19T13:24:09.004Z,58.70
2022-08-19T13:25:13.377Z,58.60
2022-08-19T13:26:18.721Z,58.70
2022-08-19T13:27:21.208Z,58.80
2022-08-19T13:28:29.038Z,58.80
2022-08-19T13:29:50.555Z,58.70
2022-08-19T13:31:26.185Z,58.10
2022-08-19T13:34:38.085Z,58.80
2022-08-19T13:35:42.696Z,58.80
2022-08-19T13:36:46.454Z,58.50
2022-08-19T13:37:48.806Z,58.00
2022-08-19T13:38:52.853Z,58.10
2022-08-19T13:39:55.192Z,57.70
2022-08-19T13:40:58.477Z,58.20
2022-08-19T13:42:03.153Z,57.90
2022-08-19T13:43:17.662Z,57.50
2022-08-19T13:44:25.595Z,57.90
2022-08-19T13:45:31.326Z,58.00
2022-08-19T13:46:33.781Z,58.30
2022-08-19T13:47:43.743Z,58.10
2022-08-19T13:48:46.970Z,57.50
2022-08-19T13:49:51.033Z,57.70
2022-08-19T13:50:55.153Z,57.60
2022-08-19T13:51:57.539Z,57.40
2022-08-19T13:53:03.040Z,57.60
2022-08-19T13:54:06.178Z,57.50
2022-08-19T13:55:11.488Z,57.60
2022-08-19T13:56:17.657Z,57.70
2022-08-19T13:57:19.934Z,57.70
2022-08-19T13:58:23.953Z,57.50
2022-08-19T13:59:26.319Z,57.30
2022-08-19T14:00:31.958Z,57.30
2022-08-19T14:01:35.207Z,57.00
2022-08-19T14:02:40.023Z,56.80
2022-08-19T14:03:45.799Z,56.90
2022-08-19T14:04:51.170Z,56.90
2022-08-19T14:05:54.508Z,57.00
2022-08-19T14:06:56.786Z,57.20
2022-08-19T14:08:01.209Z,57.10
2022-08-19T14:09:04.265Z,57.10
2022-08-19T14:10:11.616Z,57.20
2022-08-19T14:11:15.501Z,57.40
2022-08-19T14:12:28.327Z,57.20
2022-08-19T14:13:33.771Z,57.10
2022-08-19T14:14:40.179Z,57.00
2022-08-19T14:15:43.544Z,56.80
2022-08-19T14:16:46.897Z,56.70
2022-08-19T14:17:50.135Z,56.70
2022-08-19T14:18:53.935Z,56.30
2022-08-19T14:20:10.587Z,56.60
2022-08-19T14:21:18.682Z,56.80
2022-08-19T14:22:22.306Z,56.30
2022-08-19T14:23:25.735Z,56.60
2022-08-19T14:24:28.443Z,56.70
2022-08-19T14:25:33.737Z,56.60
2022-08-19T14:26:36.037Z,56.30
2022-08-19T14:27:41.958Z,56.10
2022-08-19T14:28:45.616Z,56.30
2022-08-19T14:29:48.963Z,56.40
2022-08-19T14:30:51.467Z,56.60
2022-08-19T14:32:00.072Z,56.70
2022-08-19T14:33:03.729Z,56.50
2022-08-19T14:34:06.984Z,56.50
2022-08-19T14:35:13.435Z,56.40
2022-08-19T14:36:17.250Z,56.70
2022-08-19T14:37:20.465Z,56.60
2022-08-19T14:38:31.121Z,56.20
2022-08-19T14:39:35.433Z,56.30
2022-08-19T14:40:38.918Z,56.20
2022-08-19T14:41:43.850Z,56.30
2022-08-19T14:42:46.392Z,56.20
2022-08-19T14:43:53.184Z,56.30
2022-08-19T14:44:59.879Z,56.00
2022-08-19T14:46:03.024Z,55.70
2022-08-19T14:47:08.374Z,55.90
2022-08-19T14:48:19.371Z,55.80
2022-08-19T14:49:21.935Z,55.50
2022-08-19T14:50:39.516Z,55.70
2022-08-19T14:51:41.823Z,55.40
2022-08-19T14:52:45.459Z,55.40
2022-08-19T14:53:49.680Z,55.30
2022-08-19T14:54:53.109Z,55.60
2022-08-19T14:55:56.849Z,55.50
2022-08-19T14:56:59.233Z,55.80
2022-08-19T14:58:03.390Z,55.70
2022-08-19T14:59:11.369Z,55.80
2022-08-19T15:00:15.376Z,55.70
2022-08-19T15:01:18.699Z,55.70
2022-08-19T15:02:34.448Z,55.50
2022-08-19T15:03:39.095Z,55.60
2022-08-19T15:04:41.558Z,55.40
2022-08-19T15:05:47.050Z,55.20
2022-08-19T15:06:49.329Z,55.60
2022-08-19T15:07:52.878Z,55.40
2022-08-19T15:08:57.778Z,55.40
2022-08-19T15:10:04.171Z,55.50
2022-08-19T15:11:10.862Z,55.50
2022-08-19T15:12:14.113Z,55.60
2022-08-19T15:13:27.526Z,55.10
2022-08-19T15:14:35.838Z,55.40
2022-08-19T15:15:40.187Z,55.00
2022-08-19T15:16:43.778Z,55.00
2022-08-19T15:17:47.396Z,54.80
2022-08-19T15:18:53.800Z,54.70
2022-08-19T15:19:59.285Z,54.80
2022-08-19T15:21:04.191Z,54.80
2022-08-19T15:22:07.794Z,54.80
2022-08-19T15:23:11.695Z,55.00
2022-08-19T15:24:15.572Z,55.30
2022-08-19T15:25:20.129Z,55.50
2022-08-19T15:26:23.646Z,55.30
2022-08-19T15:27:26.031Z,55.40
2022-08-19T15:28:33.458Z,55.50
2022-08-19T15:29:36.676Z,55.30
2022-08-19T15:30:42.207Z,55.40
2022-08-19T15:31:44.433Z,55.40
2022-08-19T15:32:49.151Z,55.30
2022-08-19T15:33:52.043Z,55.50
2022-08-19T15:34:56.517Z,55.70
2022-08-19T15:35:59.386Z,55.70
2022-08-19T15:37:06.486Z,56.20
2022-08-19T15:38:11.726Z,55.60
2022-08-19T15:39:14.409Z,55.60
2022-08-19T15:40:18.050Z,55.70
2022-08-19T15:41:24.064Z,55.90
2022-08-19T15:42:29.761Z,55.70
2022-08-19T15:43:33.128Z,55.90
2022-08-19T15:44:36.607Z,55.80
2022-08-19T15:45:40.321Z,55.80
2022-08-19T15:46:46.443Z,55.80
2022-08-19T15:47:50.069Z,56.10
2022-08-19T15:48:55.882Z,56.20
2022-08-19T15:50:00.953Z,56.10
2022-08-19T15:51:04.547Z,56.20
2022-08-19T15:52:08.401Z,56.40
2022-08-19T15:53:12.934Z,56.40
2022-08-19T15:54:21.547Z,56.40
2022-08-19T15:55:32.523Z,56.60
2022-08-19T15:56:58.337Z,56.80
2022-08-19T15:58:28.040Z,56.80
2022-08-19T15:59:50.860Z,56.70
2022-08-19T16:01:12.831Z,57.00
2022-08-19T16:02:35.047Z,57.00
2022-08-19T16:03:58.414Z,57.00
2022-08-19T16:05:20.521Z,57.00
2022-08-19T16:06:27.268Z,57.00
2022-08-19T16:07:31.147Z,57.20
2022-08-19T16:08:48.773Z,57.50
2022-08-19T16:09:52.004Z,57.40
2022-08-19T16:10:55.933Z,57.20
2022-08-19T16:12:02.401Z,57.20
2022-08-19T16:13:06.136Z,57.40
2022-08-19T16:14:09.639Z,57.60
2022-08-19T16:15:13.773Z,57.50
2022-08-19T16:16:17.369Z,57.60
2022-08-19T16:17:19.584Z,57.50
2022-08-19T16:18:26.136Z,57.60
2022-08-19T16:19:28.572Z,57.80
2022-08-19T16:20:33.249Z,57.90
2022-08-19T16:21:39.612Z,57.90
2022-08-19T16:22:46.464Z,57.90
2022-08-19T16:23:50.090Z,57.90
2022-08-19T16:24:53.474Z,57.90
2022-08-19T16:25:56.313Z,57.90
2022-08-19T16:27:01.503Z,58.20
2022-08-19T16:28:07.740Z,58.20
2022-08-19T16:29:13.342Z,58.20
2022-08-19T16:30:16.817Z,58.20
2022-08-19T16:31:19.412Z,58.40
2022-08-19T16:32:23.285Z,58.50
2022-08-19T16:33:25.667Z,58.60
2022-08-19T16:34:29.058Z,58.50
2022-08-19T16:35:31.354Z,58.70
2022-08-19T16:36:35.608Z,58.70
2022-08-19T16:37:39.415Z,58.40
2022-08-19T16:38:46.495Z,58.70
2022-08-19T16:39:50.159Z,58.60
2022-08-19T16:40:54.184Z,58.60
2022-08-19T16:41:57.729Z,58.60
2022-08-19T16:43:02.972Z,58.80
2022-08-19T16:44:07.075Z,58.60
2022-08-19T16:45:10.534Z,58.90
2022-08-19T16:46:14.421Z,59.10
2022-08-19T16:47:21.107Z,59.00
2022-08-19T16:48:26.189Z,59.10
2022-08-19T16:49:53.556Z,59.20
2022-08-19T16:50:54.345Z,59.30
2022-08-19T16:51:57.189Z,59.40